Strona główna
METAR-TAF:

METAR-TAF

Lotnisko :

Washington, Pensylwania, Stany Zjednoczone

Szerokość geograficzna: 40-08N, Długość geograficzna: 080-17W, wysokość: 361 m

Aktualna obserwacja pogody

Raport powstał 1 godzina i 1 minut temu, godzina 04:56 UTC
Cisza
Temperatura 7°C
Wilgotność 93%
Ciśnienie 1027 hPa
Widzialność: 16.1 km
bezchmurnie

METAR: KAFJ 010456Z AUTO 00000KT 10SM CLR 07/06 A3034 RMK AO2 SLP274 T00670056 401830067

czas: 01:57 (05:57 UTC)


TAF: brakujący

Obserwacja i prognoza pogody dla ponad 4000 lotnisk (raport METAR i TAF).

Dostępne stacje oznaczono żółtymi i czerwonymi punktami na mapie.

Najedź kursorem aby zobaczyć nazwę stacji.

Kliknij aby zobaczyć obserwacje i prognozy pogody.

Aby zmienić mapę: kliknij na zielony przycisk z czarnym krzyżykiem, aby powiększyć; na zielony przycisk z myślnikiem, aby pomniejszyć; na zielone strzałki, aby przejść do map sąsiednich.


METAR-TAF: